sensor_id;sensor_type;location;lat;lon;timestamp;pressure;altitude;pressure_sealevel;temperature;humidity
61870;BME280;47810;42.264;23.826;2023-10-19T00:02:05;93923.72;;;6.28;87.13
61870;BME280;47810;42.264;23.826;2023-10-19T00:04:31;93919.72;;;6.21;88.00
61870;BME280;47810;42.264;23.826;2023-10-19T00:07:01;93919.28;;;6.12;88.94
61870;BME280;47810;42.264;23.826;2023-10-19T00:09:29;93914.31;;;6.24;88.70
61870;BME280;47810;42.264;23.826;2023-10-19T00:12:02;93913.81;;;6.16;88.91
61870;BME280;47810;42.264;23.826;2023-10-19T00:14:28;93913.47;;;6.24;88.90
61870;BME280;47810;42.264;23.826;2023-10-19T00:16:54;93910.78;;;6.25;88.81
61870;BME280;47810;42.264;23.826;2023-10-19T00:19:25;93903.97;;;6.21;88.66
61870;BME280;47810;42.264;23.826;2023-10-19T00:21:53;93917.59;;;6.29;88.34
61870;BME280;47810;42.264;23.826;2023-10-19T00:24:21;93901.72;;;6.33;88.08
61870;BME280;47810;42.264;23.826;2023-10-19T00:26:48;93898.41;;;6.46;87.26
61870;BME280;47810;42.264;23.826;2023-10-19T00:29:18;93899.53;;;6.41;87.60
61870;BME280;47810;42.264;23.826;2023-10-19T00:31:57;93897.41;;;6.49;87.02
61870;BME280;47810;42.264;23.826;2023-10-19T00:34:23;93903.03;;;6.22;87.60
61870;BME280;47810;42.264;23.826;2023-10-19T00:36:50;93897.56;;;6.46;86.64
61870;BME280;47810;42.264;23.826;2023-10-19T00:39:17;93884.91;;;6.37;86.84
61870;BME280;47810;42.264;23.826;2023-10-19T00:41:49;93889.78;;;6.25;86.94
61870;BME280;47810;42.264;23.826;2023-10-19T00:44:15;93887.03;;;6.28;86.96
61870;BME280;47810;42.264;23.826;2023-10-19T00:46:59;93878.81;;;6.36;86.29
61870;BME280;47810;42.264;23.826;2023-10-19T00:49:37;93881.91;;;6.08;87.28
61870;BME280;47810;42.264;23.826;2023-10-19T00:52:03;93882.88;;;6.05;87.30
61870;BME280;47810;42.264;23.826;2023-10-19T00:54:39;93893.81;;;5.96;87.68
61870;BME280;47810;42.264;23.826;2023-10-19T00:57:17;93894.66;;;5.97;87.68
61870;BME280;47810;42.264;23.826;2023-10-19T00:59:48;93899.25;;;5.92;87.98
61870;BME280;47810;42.264;23.826;2023-10-19T01:02:19;93894.78;;;5.94;87.56
61870;BME280;47810;42.264;23.826;2023-10-19T01:04:49;93893.09;;;5.93;87.17
61870;BME280;47810;42.264;23.826;2023-10-19T01:07:25;93885.72;;;5.82;87.75
61870;BME280;47810;42.264;23.826;2023-10-19T01:09:55;93887.63;;;5.78;88.34
61870;BME280;47810;42.264;23.826;2023-10-19T01:12:25;93885.16;;;5.75;88.87
61870;BME280;47810;42.264;23.826;2023-10-19T01:15:03;93881.47;;;5.79;88.33
61870;BME280;47810;42.264;23.826;2023-10-19T01:17:32;93880.91;;;5.92;88.48
61870;BME280;47810;42.264;23.826;2023-10-19T01:19:59;93878.50;;;6.06;87.53
61870;BME280;47810;42.264;23.826;2023-10-19T01:22:25;93876.44;;;5.94;87.45
61870;BME280;47810;42.264;23.826;2023-10-19T01:24:52;93875.97;;;6.04;87.12
61870;BME280;47810;42.264;23.826;2023-10-19T01:27:19;93871.75;;;6.19;87.19
61870;BME280;47810;42.264;23.826;2023-10-19T01:29:45;93871.69;;;6.21;84.78
61870;BME280;47810;42.264;23.826;2023-10-19T01:32:11;93863.44;;;6.28;83.22
61870;BME280;47810;42.264;23.826;2023-10-19T01:34:40;93866.84;;;6.30;83.57
61870;BME280;47810;42.264;23.826;2023-10-19T01:37:06;93870.53;;;6.26;84.44
61870;BME280;47810;42.264;23.826;2023-10-19T01:39:32;93869.16;;;6.37;82.89
61870;BME280;47810;42.264;23.826;2023-10-19T01:41:57;93867.13;;;6.24;83.09
61870;BME280;47810;42.264;23.826;2023-10-19T01:44:23;93873.78;;;6.32;82.84
61870;BME280;47810;42.264;23.826;2023-10-19T01:46:50;93870.50;;;6.45;83.25
61870;BME280;47810;42.264;23.826;2023-10-19T01:49:16;93872.41;;;6.59;82.34
61870;BME280;47810;42.264;23.826;2023-10-19T01:51:52;93869.75;;;6.42;81.76
61870;BME280;47810;42.264;23.826;2023-10-19T01:54:19;93871.50;;;6.43;81.54
61870;BME280;47810;42.264;23.826;2023-10-19T01:56:52;93870.09;;;6.36;81.57
61870;BME280;47810;42.264;23.826;2023-10-19T01:59:20;93862.28;;;6.34;81.42
61870;BME280;47810;42.264;23.826;2023-10-19T02:01:46;93862.84;;;6.41;81.71
61870;BME280;47810;42.264;23.826;2023-10-19T02:04:12;93862.38;;;6.50;80.86
61870;BME280;47810;42.264;23.826;2023-10-19T02:06:38;93853.88;;;6.45;81.10
61870;BME280;47810;42.264;23.826;2023-10-19T02:09:09;93853.72;;;6.30;81.46
61870;BME280;47810;42.264;23.826;2023-10-19T02:11:43;93861.69;;;6.46;80.32
61870;BME280;47810;42.264;23.826;2023-10-19T02:14:11;93868.06;;;6.41;80.48
61870;BME280;47810;42.264;23.826;2023-10-19T02:16:41;93870.66;;;6.42;79.94
61870;BME280;47810;42.264;23.826;2023-10-19T02:19:08;93879.81;;;6.34;80.27
61870;BME280;47810;42.264;23.826;2023-10-19T02:21:34;93877.47;;;6.27;80.41
61870;BME280;47810;42.264;23.826;2023-10-19T02:24:05;93875.78;;;6.26;80.18
61870;BME280;47810;42.264;23.826;2023-10-19T02:26:32;93878.41;;;6.26;80.64
61870;BME280;47810;42.264;23.826;2023-10-19T02:28:58;93876.97;;;6.19;80.49
61870;BME280;47810;42.264;23.826;2023-10-19T02:31:25;93880.78;;;6.14;80.01
61870;BME280;47810;42.264;23.826;2023-10-19T02:33:51;93875.16;;;6.02;80.62
61870;BME280;47810;42.264;23.826;2023-10-19T02:36:26;93873.41;;;6.03;80.63
61870;BME280;47810;42.264;23.826;2023-10-19T02:38:58;93857.38;;;6.09;80.30
61870;BME280;47810;42.264;23.826;2023-10-19T02:41:24;93864.47;;;5.88;81.02
61870;BME280;47810;42.264;23.826;2023-10-19T02:43:52;93858.09;;;5.94;81.13
61870;BME280;47810;42.264;23.826;2023-10-19T02:46:31;93861.28;;;5.81;81.57
61870;BME280;47810;42.264;23.826;2023-10-19T02:49:01;93858.97;;;5.75;81.85
61870;BME280;47810;42.264;23.826;2023-10-19T02:51:28;93855.94;;;5.66;82.19
61870;BME280;47810;42.264;23.826;2023-10-19T02:53:55;93855.13;;;5.64;82.53
61870;BME280;47810;42.264;23.826;2023-10-19T02:56:20;93866.03;;;5.73;81.89
61870;BME280;47810;42.264;23.826;2023-10-19T02:58:49;93863.22;;;5.59;82.30
61870;BME280;47810;42.264;23.826;2023-10-19T03:01:18;93868.72;;;5.53;82.50
61870;BME280;47810;42.264;23.826;2023-10-19T03:03:50;93867.53;;;5.60;82.17
61870;BME280;47810;42.264;23.826;2023-10-19T03:06:21;93876.78;;;5.67;81.50
61870;BME280;47810;42.264;23.826;2023-10-19T03:08:47;93879.34;;;5.50;82.13
61870;BME280;47810;42.264;23.826;2023-10-19T03:11:14;93878.56;;;5.48;82.30
61870;BME280;47810;42.264;23.826;2023-10-19T03:13:40;93875.44;;;5.58;81.94
61870;BME280;47810;42.264;23.826;2023-10-19T03:16:06;93873.59;;;5.42;81.83
61870;BME280;47810;42.264;23.826;2023-10-19T03:18:35;93869.50;;;5.55;81.64
61870;BME280;47810;42.264;23.826;2023-10-19T03:21:02;93874.81;;;5.53;81.95
61870;BME280;47810;42.264;23.826;2023-10-19T03:23:29;93870.97;;;5.42;83.01
61870;BME280;47810;42.264;23.826;2023-10-19T03:25:55;93864.41;;;5.52;83.33
61870;BME280;47810;42.264;23.826;2023-10-19T03:28:27;93868.09;;;5.48;82.34
61870;BME280;47810;42.264;23.826;2023-10-19T03:30:54;93863.78;;;5.47;82.88
61870;BME280;47810;42.264;23.826;2023-10-19T03:33:20;93861.06;;;5.29;83.43
61870;BME280;47810;42.264;23.826;2023-10-19T03:35:52;93863.03;;;5.24;83.89
61870;BME280;47810;42.264;23.826;2023-10-19T03:38:20;93871.38;;;5.32;83.64
61870;BME280;47810;42.264;23.826;2023-10-19T03:40:48;93869.41;;;5.37;83.01
61870;BME280;47810;42.264;23.826;2023-10-19T03:43:17;93858.94;;;5.37;83.38
61870;BME280;47810;42.264;23.826;2023-10-19T03:45:46;93859.00;;;5.55;83.13
61870;BME280;47810;42.264;23.826;2023-10-19T03:48:18;93863.34;;;5.56;82.55
61870;BME280;47810;42.264;23.826;2023-10-19T03:50:49;93851.59;;;5.46;82.17
61870;BME280;47810;42.264;23.826;2023-10-19T03:53:18;93854.16;;;5.66;82.15
61870;BME280;47810;42.264;23.826;2023-10-19T03:55:43;93854.84;;;5.70;82.33
61870;BME280;47810;42.264;23.826;2023-10-19T03:58:28;93857.09;;;5.77;82.88
61870;BME280;47810;42.264;23.826;2023-10-19T04:00:55;93854.94;;;5.68;83.48
61870;BME280;47810;42.264;23.826;2023-10-19T04:03:26;93851.94;;;5.57;83.47
61870;BME280;47810;42.264;23.826;2023-10-19T04:05:55;93853.28;;;5.28;84.99
61870;BME280;47810;42.264;23.826;2023-10-19T04:08:21;93851.75;;;5.43;85.03
61870;BME280;47810;42.264;23.826;2023-10-19T04:10:51;93850.59;;;5.67;84.67
61870;BME280;47810;42.264;23.826;2023-10-19T04:13:35;93849.47;;;5.54;83.51
61870;BME280;47810;42.264;23.826;2023-10-19T04:16:04;93839.28;;;5.48;83.29
61870;BME280;47810;42.264;23.826;2023-10-19T04:18:35;93847.50;;;5.40;83.81
61870;BME280;47810;42.264;23.826;2023-10-19T04:21:05;93841.13;;;5.46;83.79
61870;BME280;47810;42.264;23.826;2023-10-19T04:23:30;93834.69;;;5.53;83.51
61870;BME280;47810;42.264;23.826;2023-10-19T04:26:00;93833.13;;;5.49;83.80
61870;BME280;47810;42.264;23.826;2023-10-19T04:28:31;93831.22;;;5.33;83.59
61870;BME280;47810;42.264;23.826;2023-10-19T04:31:03;93830.50;;;5.49;83.22
61870;BME280;47810;42.264;23.826;2023-10-19T04:33:30;93829.50;;;5.51;83.24
61870;BME280;47810;42.264;23.826;2023-10-19T04:35:56;93835.16;;;5.61;82.08
61870;BME280;47810;42.264;23.826;2023-10-19T04:38:22;93827.25;;;5.44;83.63
61870;BME280;47810;42.264;23.826;2023-10-19T04:40:48;93822.03;;;5.44;84.37
61870;BME280;47810;42.264;23.826;2023-10-19T04:43:13;93833.03;;;5.31;84.28
61870;BME280;47810;42.264;23.826;2023-10-19T04:45:39;93833.84;;;5.33;84.42
61870;BME280;47810;42.264;23.826;2023-10-19T04:48:05;93835.63;;;5.33;84.99
61870;BME280;47810;42.264;23.826;2023-10-19T04:50:31;93836.72;;;5.27;85.28
61870;BME280;47810;42.264;23.826;2023-10-19T04:52:56;93834.78;;;5.12;85.80
61870;BME280;47810;42.264;23.826;2023-10-19T04:55:22;93838.09;;;4.97;86.04
61870;BME280;47810;42.264;23.826;2023-10-19T04:57:48;93838.84;;;5.19;85.53
61870;BME280;47810;42.264;23.826;2023-10-19T05:00:14;93835.88;;;5.08;85.28
61870;BME280;47810;42.264;23.826;2023-10-19T05:02:41;93836.13;;;5.02;85.61
61870;BME280;47810;42.264;23.826;2023-10-19T05:05:06;93846.72;;;4.99;85.48
61870;BME280;47810;42.264;23.826;2023-10-19T05:07:32;93843.59;;;4.90;86.03
61870;BME280;47810;42.264;23.826;2023-10-19T05:09:58;93851.69;;;5.05;85.88
61870;BME280;47810;42.264;23.826;2023-10-19T05:12:24;93842.38;;;5.18;85.48
61870;BME280;47810;42.264;23.826;2023-10-19T05:14:50;93849.56;;;5.13;85.17
61870;BME280;47810;42.264;23.826;2023-10-19T05:17:16;93847.88;;;5.12;84.70
61870;BME280;47810;42.264;23.826;2023-10-19T05:19:41;93852.84;;;5.18;84.26
61870;BME280;47810;42.264;23.826;2023-10-19T05:22:07;93847.59;;;5.18;83.86
61870;BME280;47810;42.264;23.826;2023-10-19T05:24:33;93853.69;;;5.19;83.86
61870;BME280;47810;42.264;23.826;2023-10-19T05:26:59;93853.00;;;5.34;83.85
61870;BME280;47810;42.264;23.826;2023-10-19T05:29:24;93850.59;;;5.48;82.93
61870;BME280;47810;42.264;23.826;2023-10-19T05:31:50;93848.47;;;5.37;83.60
61870;BME280;47810;42.264;23.826;2023-10-19T05:34:19;93850.94;;;5.22;84.71
61870;BME280;47810;42.264;23.826;2023-10-19T05:36:45;93851.16;;;5.17;85.31
61870;BME280;47810;42.264;23.826;2023-10-19T05:39:14;93854.63;;;5.18;85.72
61870;BME280;47810;42.264;23.826;2023-10-19T05:41:39;93855.94;;;5.26;85.67
61870;BME280;47810;42.264;23.826;2023-10-19T05:44:05;93851.22;;;5.34;85.46
61870;BME280;47810;42.264;23.826;2023-10-19T05:46:31;93852.66;;;5.42;85.88
61870;BME280;47810;42.264;23.826;2023-10-19T05:48:57;93849.03;;;5.44;86.09
61870;BME280;47810;42.264;23.826;2023-10-19T05:51:23;93854.56;;;5.57;85.75
61870;BME280;47810;42.264;23.826;2023-10-19T05:53:49;93853.44;;;5.81;85.22
61870;BME280;47810;42.264;23.826;2023-10-19T05:56:16;93851.28;;;5.90;84.77
61870;BME280;47810;42.264;23.826;2023-10-19T05:58:43;93845.22;;;6.08;84.30
61870;BME280;47810;42.264;23.826;2023-10-19T06:01:10;93852.13;;;6.09;84.47
61870;BME280;47810;42.264;23.826;2023-10-19T06:03:35;93852.19;;;6.26;84.03
61870;BME280;47810;42.264;23.826;2023-10-19T06:06:01;93855.41;;;6.32;84.20
61870;BME280;47810;42.264;23.826;2023-10-19T06:08:27;93858.13;;;6.30;84.79
61870;BME280;47810;42.264;23.826;2023-10-19T06:10:54;93861.75;;;6.27;84.86
61870;BME280;47810;42.264;23.826;2023-10-19T06:13:20;93866.69;;;6.34;85.03
61870;BME280;47810;42.264;23.826;2023-10-19T06:15:49;93868.53;;;6.32;85.64
61870;BME280;47810;42.264;23.826;2023-10-19T06:18:15;93867.69;;;6.31;85.63
61870;BME280;47810;42.264;23.826;2023-10-19T06:20:44;93862.53;;;6.29;85.69
61870;BME280;47810;42.264;23.826;2023-10-19T06:23:09;93864.06;;;6.34;85.79
61870;BME280;47810;42.264;23.826;2023-10-19T06:25:37;93861.91;;;6.42;85.67
61870;BME280;47810;42.264;23.826;2023-10-19T06:28:04;93864.38;;;6.45;85.41
61870;BME280;47810;42.264;23.826;2023-10-19T06:30:30;93862.09;;;6.56;85.66
61870;BME280;47810;42.264;23.826;2023-10-19T06:32:59;93858.16;;;6.65;85.36
61870;BME280;47810;42.264;23.826;2023-10-19T06:35:31;93858.06;;;6.66;85.23
61870;BME280;47810;42.264;23.826;2023-10-19T06:38:00;93858.53;;;6.92;85.26
61870;BME280;47810;42.264;23.826;2023-10-19T06:40:26;93850.59;;;6.93;84.78
61870;BME280;47810;42.264;23.826;2023-10-19T06:42:55;93858.75;;;7.05;85.20
61870;BME280;47810;42.264;23.826;2023-10-19T06:45:24;93865.56;;;7.24;85.50
61870;BME280;47810;42.264;23.826;2023-10-19T06:47:50;93863.59;;;7.12;85.47
61870;BME280;47810;42.264;23.826;2023-10-19T06:50:19;93867.78;;;7.16;85.88
61870;BME280;47810;42.264;23.826;2023-10-19T06:52:46;93869.44;;;7.17;86.02
61870;BME280;47810;42.264;23.826;2023-10-19T06:55:15;93871.81;;;7.22;86.15
61870;BME280;47810;42.264;23.826;2023-10-19T06:57:50;93865.13;;;7.16;86.18
61870;BME280;47810;42.264;23.826;2023-10-19T07:00:16;93867.28;;;7.26;86.40
61870;BME280;47810;42.264;23.826;2023-10-19T07:02:49;93862.03;;;7.26;86.38
61870;BME280;47810;42.264;23.826;2023-10-19T07:05:16;93861.69;;;7.32;86.14
61870;BME280;47810;42.264;23.826;2023-10-19T07:07:49;93868.34;;;7.39;85.76
61870;BME280;47810;42.264;23.826;2023-10-19T07:10:17;93873.09;;;7.48;85.29
61870;BME280;47810;42.264;23.826;2023-10-19T07:12:44;93867.34;;;7.57;84.68
61870;BME280;47810;42.264;23.826;2023-10-19T07:15:10;93865.66;;;7.56;84.39
61870;BME280;47810;42.264;23.826;2023-10-19T07:17:44;93862.78;;;7.61;84.04
61870;BME280;47810;42.264;23.826;2023-10-19T07:20:11;93857.16;;;7.51;84.33
61870;BME280;47810;42.264;23.826;2023-10-19T07:22:59;93862.78;;;7.77;83.56
61870;BME280;47810;42.264;23.826;2023-10-19T07:25:44;93858.75;;;7.87;83.66
61870;BME280;47810;42.264;23.826;2023-10-19T07:28:10;93863.84;;;7.90;82.56
61870;BME280;47810;42.264;23.826;2023-10-19T07:30:38;93852.59;;;8.18;82.07
61870;BME280;47810;42.264;23.826;2023-10-19T07:33:03;93855.84;;;8.39;81.92
61870;BME280;47810;42.264;23.826;2023-10-19T07:35:33;93860.06;;;8.57;81.63
61870;BME280;47810;42.264;23.826;2023-10-19T07:37:59;93861.41;;;8.65;82.48
61870;BME280;47810;42.264;23.826;2023-10-19T07:40:25;93854.22;;;8.82;82.43
61870;BME280;47810;42.264;23.826;2023-10-19T07:42:50;93856.22;;;8.93;81.86
61870;BME280;47810;42.264;23.826;2023-10-19T07:45:17;93838.75;;;9.21;81.86
61870;BME280;47810;42.264;23.826;2023-10-19T07:47:43;93848.28;;;9.52;81.67
61870;BME280;47810;42.264;23.826;2023-10-19T07:50:10;93853.44;;;9.82;79.05
61870;BME280;47810;42.264;23.826;2023-10-19T07:52:43;93848.09;;;9.84;79.05
61870;BME280;47810;42.264;23.826;2023-10-19T07:55:15;93845.47;;;10.11;76.95
61870;BME280;47810;42.264;23.826;2023-10-19T07:57:43;93837.00;;;10.34;77.70
61870;BME280;47810;42.264;23.826;2023-10-19T08:00:09;93827.59;;;10.70;76.25
61870;BME280;47810;42.264;23.826;2023-10-19T08:02:35;93828.53;;;11.09;75.72
61870;BME280;47810;42.264;23.826;2023-10-19T08:05:02;93828.31;;;11.25;74.41
61870;BME280;47810;42.264;23.826;2023-10-19T08:07:29;93817.53;;;11.66;73.86
61870;BME280;47810;42.264;23.826;2023-10-19T08:09:54;93804.34;;;12.03;70.86
61870;BME280;47810;42.264;23.826;2023-10-19T08:12:24;93806.97;;;12.16;69.74
61870;BME280;47810;42.264;23.826;2023-10-19T08:14:49;93807.66;;;12.54;70.20
61870;BME280;47810;42.264;23.826;2023-10-19T08:17:15;93810.38;;;12.77;68.87
61870;BME280;47810;42.264;23.826;2023-10-19T08:19:41;93807.25;;;13.07;66.99
61870;BME280;47810;42.264;23.826;2023-10-19T08:22:08;93800.38;;;13.40;67.87
61870;BME280;47810;42.264;23.826;2023-10-19T08:24:35;93813.41;;;13.88;65.37
61870;BME280;47810;42.264;23.826;2023-10-19T08:27:01;93807.38;;;13.86;64.61
61870;BME280;47810;42.264;23.826;2023-10-19T08:29:27;93812.03;;;14.38;65.08
61870;BME280;47810;42.264;23.826;2023-10-19T08:31:54;93809.88;;;14.76;61.02
61870;BME280;47810;42.264;23.826;2023-10-19T08:34:21;93808.88;;;14.44;61.47
61870;BME280;47810;42.264;23.826;2023-10-19T08:36:47;93812.00;;;14.93;61.38
61870;BME280;47810;42.264;23.826;2023-10-19T08:39:15;93817.41;;;15.24;60.10
61870;BME280;47810;42.264;23.826;2023-10-19T08:41:40;93815.19;;;15.50;59.55
61870;BME280;47810;42.264;23.826;2023-10-19T08:44:07;93820.97;;;15.34;58.76
61870;BME280;47810;42.264;23.826;2023-10-19T08:46:42;93816.22;;;15.37;57.55
61870;BME280;47810;42.264;23.826;2023-10-19T08:49:11;93813.53;;;14.75;58.70
61870;BME280;47810;42.264;23.826;2023-10-19T08:51:38;93812.09;;;14.71;58.50
61870;BME280;47810;42.264;23.826;2023-10-19T08:54:04;93819.56;;;14.77;60.33
61870;BME280;47810;42.264;23.826;2023-10-19T08:56:30;93825.50;;;14.69;59.95
61870;BME280;47810;42.264;23.826;2023-10-19T08:58:56;93834.59;;;14.55;59.99
61870;BME280;47810;42.264;23.826;2023-10-19T09:01:21;93829.50;;;14.63;60.61
61870;BME280;47810;42.264;23.826;2023-10-19T09:03:49;93824.19;;;14.63;58.99
61870;BME280;47810;42.264;23.826;2023-10-19T09:06:15;93820.91;;;14.71;60.22
61870;BME280;47810;42.264;23.826;2023-10-19T09:08:41;93813.69;;;14.51;58.17
61870;BME280;47810;42.264;23.826;2023-10-19T09:11:07;93819.34;;;14.57;57.95
61870;BME280;47810;42.264;23.826;2023-10-19T09:13:50;93812.34;;;14.67;56.75
61870;BME280;47810;42.264;23.826;2023-10-19T09:16:16;93813.28;;;14.66;58.40
61870;BME280;47810;42.264;23.826;2023-10-19T09:18:42;93822.13;;;14.67;58.69
61870;BME280;47810;42.264;23.826;2023-10-19T09:21:11;93826.59;;;14.44;58.71
61870;BME280;47810;42.264;23.826;2023-10-19T09:23:49;93822.81;;;14.26;58.72
61870;BME280;47810;42.264;23.826;2023-10-19T09:26:15;93836.88;;;14.60;58.36
61870;BME280;47810;42.264;23.826;2023-10-19T09:28:42;93838.13;;;13.77;60.93
61870;BME280;47810;42.264;23.826;2023-10-19T09:31:07;93838.97;;;13.20;62.20
61870;BME280;47810;42.264;23.826;2023-10-19T09:33:38;93841.13;;;13.15;63.63
61870;BME280;47810;42.264;23.826;2023-10-19T09:36:05;93850.06;;;13.60;62.34
61870;BME280;47810;42.264;23.826;2023-10-19T09:38:47;93848.00;;;13.17;63.22
61870;BME280;47810;42.264;23.826;2023-10-19T09:41:14;93849.03;;;13.27;63.15
61870;BME280;47810;42.264;23.826;2023-10-19T09:43:44;93845.47;;;13.62;62.54
61870;BME280;47810;42.264;23.826;2023-10-19T09:46:11;93846.56;;;13.60;63.86
61870;BME280;47810;42.264;23.826;2023-10-19T09:48:41;93834.75;;;13.75;62.77
61870;BME280;47810;42.264;23.826;2023-10-19T09:51:11;93827.13;;;14.15;62.44
61870;BME280;47810;42.264;23.826;2023-10-19T09:53:37;93821.47;;;14.20;60.19
61870;BME280;47810;42.264;23.826;2023-10-19T09:56:04;93824.22;;;14.30;59.46
61870;BME280;47810;42.264;23.826;2023-10-19T09:58:35;93820.50;;;14.21;61.21
61870;BME280;47810;42.264;23.826;2023-10-19T10:01:04;93821.84;;;13.93;60.67
61870;BME280;47810;42.264;23.826;2023-10-19T10:06:13;93804.97;;;14.60;59.63
61870;BME280;47810;42.264;23.826;2023-10-19T10:08:42;93805.47;;;14.54;62.01
61870;BME280;47810;42.264;23.826;2023-10-19T10:11:17;93804.97;;;14.71;59.92
61870;BME280;47810;42.264;23.826;2023-10-19T10:13:43;93800.00;;;14.99;58.48
61870;BME280;47810;42.264;23.826;2023-10-19T10:16:12;93790.75;;;14.93;59.62
61870;BME280;47810;42.264;23.826;2023-10-19T10:18:38;93772.53;;;14.34;60.61
61870;BME280;47810;42.264;23.826;2023-10-19T10:24:00;93748.91;;;15.16;60.00
61870;BME280;47810;42.264;23.826;2023-10-19T10:26:25;93736.03;;;15.42;56.72
61870;BME280;47810;42.264;23.826;2023-10-19T10:31:44;93724.41;;;15.43;58.08
61870;BME280;47810;42.264;23.826;2023-10-19T10:34:10;93718.91;;;15.66;55.62
61870;BME280;47810;42.264;23.826;2023-10-19T10:39:20;93718.72;;;15.78;56.13
61870;BME280;47810;42.264;23.826;2023-10-19T10:41:54;93718.47;;;15.91;54.62
61870;BME280;47810;42.264;23.826;2023-10-19T10:44:34;93709.16;;;15.76;56.28
61870;BME280;47810;42.264;23.826;2023-10-19T10:47:00;93705.28;;;15.80;55.37
61870;BME280;47810;42.264;23.826;2023-10-19T10:49:25;93702.22;;;15.94;57.73
61870;BME280;47810;42.264;23.826;2023-10-19T10:51:51;93702.47;;;16.41;56.52
61870;BME280;47810;42.264;23.826;2023-10-19T10:54:21;93707.34;;;17.04;54.57
61870;BME280;47810;42.264;23.826;2023-10-19T10:56:46;93698.78;;;17.67;55.48
61870;BME280;47810;42.264;23.826;2023-10-19T10:59:12;93695.47;;;18.38;52.86
61870;BME280;47810;42.264;23.826;2023-10-19T11:01:38;93700.16;;;18.26;51.50
61870;BME280;47810;42.264;23.826;2023-10-19T11:04:10;93696.34;;;18.11;53.19
61870;BME280;47810;42.264;23.826;2023-10-19T11:06:48;93688.28;;;18.38;51.53
61870;BME280;47810;42.264;23.826;2023-10-19T11:09:14;93691.44;;;18.70;52.42
61870;BME280;47810;42.264;23.826;2023-10-19T11:11:44;93684.88;;;19.26;50.57
61870;BME280;47810;42.264;23.826;2023-10-19T11:14:10;93674.31;;;19.50;48.89
61870;BME280;47810;42.264;23.826;2023-10-19T11:16:39;93683.88;;;19.01;50.18
61870;BME280;47810;42.264;23.826;2023-10-19T11:19:05;93674.91;;;19.10;50.12
61870;BME280;47810;42.264;23.826;2023-10-19T11:21:31;93677.50;;;19.46;50.23
61870;BME280;47810;42.264;23.826;2023-10-19T11:23:59;93680.09;;;19.38;48.62
61870;BME280;47810;42.264;23.826;2023-10-19T11:26:26;93684.38;;;19.74;48.45
61870;BME280;47810;42.264;23.826;2023-10-19T11:28:58;93681.53;;;20.10;47.28
61870;BME280;47810;42.264;23.826;2023-10-19T11:31:25;93669.16;;;20.25;45.94
61870;BME280;47810;42.264;23.826;2023-10-19T11:33:53;93673.44;;;20.02;47.42
61870;BME280;47810;42.264;23.826;2023-10-19T11:36:21;93670.09;;;20.00;46.02
61870;BME280;47810;42.264;23.826;2023-10-19T11:38:48;93671.16;;;19.03;49.28
61870;BME280;47810;42.264;23.826;2023-10-19T11:41:15;93672.97;;;19.20;49.88
61870;BME280;47810;42.264;23.826;2023-10-19T11:43:45;93664.84;;;19.04;50.03
61870;BME280;47810;42.264;23.826;2023-10-19T11:46:11;93654.34;;;19.37;49.03
61870;BME280;47810;42.264;23.826;2023-10-19T11:48:40;93658.31;;;19.85;50.05
61870;BME280;47810;42.264;23.826;2023-10-19T11:51:08;93639.03;;;19.29;48.66
61870;BME280;47810;42.264;23.826;2023-10-19T11:53:37;93640.38;;;19.85;48.26
61870;BME280;47810;42.264;23.826;2023-10-19T11:56:04;93637.94;;;20.00;48.52
61870;BME280;47810;42.264;23.826;2023-10-19T11:58:33;93634.69;;;20.39;46.80
61870;BME280;47810;42.264;23.826;2023-10-19T12:01:03;93624.63;;;20.49;47.26
61870;BME280;47810;42.264;23.826;2023-10-19T12:03:31;93617.47;;;20.82;45.89
61870;BME280;47810;42.264;23.826;2023-10-19T12:05:56;93619.13;;;20.91;43.05
61870;BME280;47810;42.264;23.826;2023-10-19T12:08:23;93615.97;;;20.88;44.20
61870;BME280;47810;42.264;23.826;2023-10-19T12:10:50;93610.53;;;20.39;46.23
61870;BME280;47810;42.264;23.826;2023-10-19T12:13:16;93615.97;;;20.55;45.25
61870;BME280;47810;42.264;23.826;2023-10-19T12:15:42;93604.06;;;20.74;45.71
61870;BME280;47810;42.264;23.826;2023-10-19T12:18:19;93605.22;;;20.88;43.82
61870;BME280;47810;42.264;23.826;2023-10-19T12:20:45;93599.53;;;20.91;44.38
61870;BME280;47810;42.264;23.826;2023-10-19T12:23:11;93589.09;;;21.04;44.63
61870;BME280;47810;42.264;23.826;2023-10-19T12:25:38;93588.75;;;21.07;43.27
61870;BME280;47810;42.264;23.826;2023-10-19T12:28:05;93597.84;;;21.06;42.62
61870;BME280;47810;42.264;23.826;2023-10-19T12:30:32;93590.75;;;21.05;44.09
61870;BME280;47810;42.264;23.826;2023-10-19T12:33:05;93591.28;;;20.76;43.21
61870;BME280;47810;42.264;23.826;2023-10-19T12:35:37;93581.38;;;21.09;43.96
61870;BME280;47810;42.264;23.826;2023-10-19T12:38:32;93581.41;;;20.93;44.05
61870;BME280;47810;42.264;23.826;2023-10-19T12:40:59;93579.88;;;20.82;43.00
61870;BME280;47810;42.264;23.826;2023-10-19T12:43:24;93584.75;;;20.95;43.17
61870;BME280;47810;42.264;23.826;2023-10-19T12:45:50;93577.53;;;21.04;43.64
61870;BME280;47810;42.264;23.826;2023-10-19T12:48:19;93579.69;;;21.16;42.72
61870;BME280;47810;42.264;23.826;2023-10-19T12:50:45;93580.03;;;21.05;42.58
61870;BME280;47810;42.264;23.826;2023-10-19T12:53:11;93570.31;;;21.12;43.46
61870;BME280;47810;42.264;23.826;2023-10-19T12:55:36;93573.28;;;21.17;43.74
61870;BME280;47810;42.264;23.826;2023-10-19T12:58:06;93567.59;;;21.21;42.45
61870;BME280;47810;42.264;23.826;2023-10-19T13:00:36;93568.47;;;21.05;42.94
61870;BME280;47810;42.264;23.826;2023-10-19T13:03:06;93565.13;;;21.03;43.52
61870;BME280;47810;42.264;23.826;2023-10-19T13:05:33;93548.03;;;20.79;43.59
61870;BME280;47810;42.264;23.826;2023-10-19T13:07:58;93550.53;;;20.97;42.56
61870;BME280;47810;42.264;23.826;2023-10-19T13:10:28;93550.56;;;20.64;42.77
61870;BME280;47810;42.264;23.826;2023-10-19T13:12:59;93542.19;;;20.59;44.54